createdAt,value
2023-04-08T00:01:57.664Z,32.40
2023-04-08T00:04:25.664Z,32.60
2023-04-08T00:06:53.253Z,34.80
2023-04-08T00:09:21.160Z,30.75
2023-04-08T00:11:48.665Z,32.75
2023-04-08T00:14:17.462Z,26.85
2023-04-08T00:16:44.967Z,24.40
2023-04-08T00:19:12.486Z,33.10
2023-04-08T00:21:40.446Z,28.63
2023-04-08T00:24:08.000Z,30.25
2023-04-08T00:26:35.456Z,30.02
2023-04-08T00:29:02.923Z,32.28
2023-04-08T00:31:31.727Z,29.45
2023-04-08T00:33:59.206Z,33.22
2023-04-08T00:36:27.685Z,32.00
2023-04-08T00:38:55.601Z,33.88
2023-04-08T00:41:23.281Z,23.73
2023-04-08T00:43:51.029Z,33.92
2023-04-08T00:46:18.588Z,33.67
2023-04-08T00:48:47.667Z,23.60
2023-04-08T00:51:16.253Z,28.98
2023-04-08T00:53:43.721Z,33.33
2023-04-08T00:56:12.359Z,29.83
2023-04-08T00:58:40.475Z,34.55
2023-04-08T01:01:13.553Z,33.70
2023-04-08T01:03:58.369Z,33.60
2023-04-08T01:06:33.449Z,34.80
2023-04-08T01:09:01.903Z,36.53
2023-04-08T01:11:33.710Z,33.05
2023-04-08T01:14:06.350Z,33.80
2023-04-08T01:16:35.587Z,38.55
2023-04-08T01:19:06.223Z,49.75
2023-04-08T01:21:33.973Z,43.13
2023-04-08T01:24:11.762Z,38.78
2023-04-08T01:26:42.036Z,33.85
2023-04-08T01:29:10.328Z,39.00
2023-04-08T01:31:39.095Z,45.10
2023-04-08T01:34:07.551Z,49.67
2023-04-08T01:36:38.192Z,44.78
2023-04-08T01:39:07.611Z,45.97
2023-04-08T01:41:37.539Z,45.35
2023-04-08T01:44:06.905Z,43.42
2023-04-08T01:46:36.083Z,56.13
2023-04-08T01:49:05.467Z,42.63
2023-04-08T01:51:34.191Z,47.83
2023-04-08T01:54:01.863Z,43.30
2023-04-08T01:56:33.992Z,48.88
2023-04-08T01:59:04.735Z,45.33
2023-04-08T02:01:38.295Z,49.30
2023-04-08T02:04:06.275Z,48.92
2023-04-08T02:06:34.678Z,38.15
2023-04-08T02:09:02.277Z,53.50
2023-04-08T02:11:30.574Z,50.08
2023-04-08T02:13:58.958Z,45.78
2023-04-08T02:16:32.241Z,53.15
2023-04-08T02:19:08.979Z,49.28
2023-04-08T02:21:43.730Z,53.47
2023-04-08T02:24:14.752Z,46.83
2023-04-08T02:26:44.989Z,47.67
2023-04-08T02:29:16.695Z,44.92
2023-04-08T02:31:45.459Z,53.53
2023-04-08T02:34:16.093Z,42.05
2023-04-08T02:36:47.844Z,52.25
2023-04-08T02:39:20.032Z,48.33
2023-04-08T02:41:47.986Z,48.40
2023-04-08T02:44:15.717Z,48.03
2023-04-08T02:46:43.305Z,51.55
2023-04-08T02:49:10.897Z,45.95
2023-04-08T02:51:39.928Z,40.42
2023-04-08T02:54:07.653Z,44.85
2023-04-08T02:56:35.459Z,50.05
2023-04-08T02:59:02.952Z,43.30
2023-04-08T03:01:32.039Z,49.28
2023-04-08T03:03:59.674Z,38.42
2023-04-08T03:06:27.825Z,51.28
2023-04-08T03:08:56.758Z,52.22
2023-04-08T03:11:25.442Z,41.72
2023-04-08T03:13:54.242Z,42.38
2023-04-08T03:16:21.907Z,44.05
2023-04-08T03:18:50.887Z,40.45
2023-04-08T03:21:19.150Z,40.10
2023-04-08T03:23:47.469Z,37.65
2023-04-08T03:26:16.403Z,43.97
2023-04-08T03:28:44.052Z,39.35
2023-04-08T03:31:11.747Z,36.10
2023-04-08T03:33:41.151Z,41.13
2023-04-08T03:36:09.889Z,38.83
2023-04-08T03:38:37.544Z,33.78
2023-04-08T03:41:05.343Z,41.63
2023-04-08T03:43:35.686Z,39.60
2023-04-08T03:46:05.112Z,41.10
2023-04-08T03:48:33.321Z,38.03
2023-04-08T03:51:02.292Z,39.25
2023-04-08T03:53:30.831Z,42.65
2023-04-08T03:55:59.078Z,37.88
2023-04-08T03:58:26.820Z,37.42
2023-04-08T04:00:55.918Z,39.72
2023-04-08T04:03:23.736Z,38.05
2023-04-08T04:05:52.148Z,42.22
2023-04-08T04:08:20.224Z,47.63
2023-04-08T04:10:47.878Z,41.03
2023-04-08T04:13:15.839Z,40.58
2023-04-08T04:15:43.439Z,42.38
2023-04-08T04:18:12.475Z,44.53
2023-04-08T04:20:41.055Z,41.10
2023-04-08T04:23:08.703Z,44.13
2023-04-08T04:25:36.773Z,41.88
2023-04-08T04:28:04.570Z,41.50
2023-04-08T04:30:32.389Z,40.05
2023-04-08T04:33:00.606Z,41.55
2023-04-08T04:35:29.930Z,41.72
2023-04-08T04:37:57.945Z,39.42
2023-04-08T04:40:25.461Z,45.03
2023-04-08T04:42:53.027Z,38.20
2023-04-08T04:45:20.648Z,40.38
2023-04-08T04:47:48.236Z,39.58
2023-04-08T04:50:15.978Z,41.75
2023-04-08T04:52:44.916Z,36.85
2023-04-08T04:55:16.234Z,36.92
2023-04-08T04:57:44.828Z,45.88
2023-04-08T05:00:13.700Z,42.13
2023-04-08T05:02:44.703Z,39.55
2023-04-08T05:05:12.423Z,31.40
2023-04-08T05:07:40.066Z,36.83
2023-04-08T05:10:10.902Z,38.17
2023-04-08T05:12:38.725Z,41.70
2023-04-08T05:15:07.780Z,36.47
2023-04-08T05:17:36.256Z,39.03
2023-04-08T05:20:04.702Z,37.10
2023-04-08T05:22:32.596Z,38.03
2023-04-08T05:25:00.433Z,37.70
2023-04-08T05:27:29.893Z,37.00
2023-04-08T05:29:57.967Z,36.25
2023-04-08T05:32:25.907Z,40.17
2023-04-08T05:34:53.798Z,49.97
2023-04-08T05:37:21.859Z,45.40
2023-04-08T05:39:49.885Z,44.75
2023-04-08T05:42:17.607Z,44.92
2023-04-08T05:44:46.803Z,36.78
2023-04-08T05:47:14.822Z,33.78
2023-04-08T05:49:42.426Z,36.42
2023-04-08T05:52:10.193Z,33.97
2023-04-08T05:54:37.738Z,29.63
2023-04-08T05:57:05.715Z,35.72
2023-04-08T05:59:33.471Z,27.88
2023-04-08T06:02:02.417Z,32.97
2023-04-08T06:04:30.073Z,35.80
2023-04-08T06:06:59.591Z,33.80
2023-04-08T06:09:27.287Z,34.95
2023-04-08T06:11:54.761Z,32.58
2023-04-08T06:14:22.224Z,36.30
2023-04-08T06:16:49.763Z,38.22
2023-04-08T06:19:18.607Z,32.47
2023-04-08T06:21:47.161Z,35.15
2023-04-08T06:24:14.614Z,38.63
2023-04-08T06:26:42.485Z,45.28
2023-04-08T06:29:10.197Z,31.35
2023-04-08T06:31:37.749Z,50.20
2023-04-08T06:34:05.213Z,43.28
2023-04-08T06:36:34.074Z,80.40
2023-04-08T06:39:01.687Z,65.45
2023-04-08T06:41:29.124Z,58.22
2023-04-08T06:43:56.563Z,63.35
2023-04-08T06:46:24.146Z,59.00
2023-04-08T06:48:51.939Z,89.20
2023-04-08T06:51:19.677Z,99.20
2023-04-08T06:53:49.025Z,125.28
2023-04-08T06:56:16.687Z,56.63
2023-04-08T06:58:44.421Z,52.50
2023-04-08T07:01:12.167Z,52.85
2023-04-08T07:03:39.754Z,40.42
2023-04-08T07:06:07.398Z,86.07
2023-04-08T07:08:34.907Z,36.50
2023-04-08T07:11:03.947Z,40.25
2023-04-08T07:13:31.547Z,37.65
2023-04-08T07:15:59.022Z,29.50
2023-04-08T07:18:28.129Z,53.75
2023-04-08T07:20:56.382Z,43.40
2023-04-08T07:23:24.195Z,36.80
2023-04-08T07:25:51.703Z,48.53
2023-04-08T07:28:20.734Z,38.78
2023-04-08T07:30:48.682Z,42.97
2023-04-08T07:33:16.552Z,50.25
2023-04-08T07:35:44.053Z,41.30
2023-04-08T07:38:13.309Z,47.55
2023-04-08T07:40:41.051Z,31.73
2023-04-08T07:43:09.184Z,32.42
2023-04-08T07:45:38.003Z,41.95
2023-04-08T07:48:05.936Z,34.55
2023-04-08T07:50:33.513Z,33.42
2023-04-08T07:53:01.070Z,28.95
2023-04-08T07:55:28.913Z,30.33
2023-04-08T07:57:56.975Z,32.22
2023-04-08T08:00:24.601Z,28.38
2023-04-08T08:02:53.670Z,27.10
2023-04-08T08:05:21.547Z,23.08
2023-04-08T08:07:50.343Z,28.20
2023-04-08T08:10:17.833Z,26.83
2023-04-08T08:12:45.288Z,24.77
2023-04-08T08:15:13.041Z,16.00
2023-04-08T08:17:40.658Z,19.50
2023-04-08T08:20:10.439Z,18.35
2023-04-08T08:22:47.269Z,23.65
2023-04-08T08:25:25.968Z,17.08
2023-04-08T08:27:55.465Z,22.55
2023-04-08T08:30:23.034Z,19.20
2023-04-08T08:32:51.985Z,27.83
2023-04-08T08:35:20.842Z,23.90
2023-04-08T08:37:48.996Z,26.77
2023-04-08T08:40:16.822Z,27.52
2023-04-08T08:42:53.487Z,14.68
2023-04-08T08:45:21.379Z,24.92
2023-04-08T08:47:51.016Z,20.65
2023-04-08T08:50:19.131Z,16.30
2023-04-08T08:52:51.849Z,24.10
2023-04-08T08:55:36.340Z,23.33
2023-04-08T08:58:08.417Z,25.70
2023-04-08T09:00:37.431Z,21.50
2023-04-08T09:03:19.731Z,22.00
2023-04-08T09:05:52.290Z,24.75
2023-04-08T09:08:29.265Z,23.83
2023-04-08T09:10:58.194Z,24.48
2023-04-08T09:13:26.229Z,28.70
2023-04-08T09:16:04.831Z,31.37
2023-04-08T09:18:33.333Z,27.83
2023-04-08T09:21:02.164Z,26.00
2023-04-08T09:23:41.197Z,26.42
2023-04-08T09:26:10.283Z,26.00
2023-04-08T09:28:38.826Z,20.20
2023-04-08T09:31:28.191Z,23.38
2023-04-08T09:33:58.045Z,17.60
2023-04-08T09:36:27.417Z,15.95
2023-04-08T09:38:56.653Z,21.52
2023-04-08T09:41:24.389Z,20.47
2023-04-08T09:43:55.608Z,27.70
2023-04-08T09:46:28.044Z,30.17
2023-04-08T09:49:03.143Z,17.58
2023-04-08T09:54:26.431Z,23.90
2023-04-08T09:57:03.583Z,25.60
2023-04-08T09:59:34.096Z,28.17
2023-04-08T10:02:08.199Z,28.38
2023-04-08T10:04:37.975Z,30.33
2023-04-08T10:07:07.958Z,28.40
2023-04-08T10:09:38.469Z,30.10
2023-04-08T10:12:06.463Z,33.60
2023-04-08T10:14:34.109Z,34.70
2023-04-08T10:17:26.363Z,27.90
2023-04-08T10:19:54.652Z,29.58
2023-04-08T10:22:47.861Z,25.77
2023-04-08T10:25:33.789Z,32.55
2023-04-08T10:28:03.469Z,18.73
2023-04-08T10:30:41.970Z,17.75
2023-04-08T10:33:12.492Z,25.63
2023-04-08T10:35:42.915Z,24.45
2023-04-08T10:38:11.023Z,29.42
2023-04-08T10:40:41.519Z,30.70
2023-04-08T10:43:09.988Z,17.58
2023-04-08T10:45:40.221Z,18.00
2023-04-08T10:48:14.893Z,21.27
2023-04-08T10:50:42.940Z,25.55
2023-04-08T10:53:11.246Z,23.45
2023-04-08T10:55:40.170Z,16.90
2023-04-08T10:58:08.940Z,23.80
2023-04-08T11:00:38.142Z,19.77
2023-04-08T11:03:07.708Z,16.73
2023-04-08T11:05:36.763Z,22.27
2023-04-08T11:08:04.629Z,16.33
2023-04-08T11:10:32.903Z,23.33
2023-04-08T11:13:02.324Z,19.67
2023-04-08T11:15:32.483Z,23.38
2023-04-08T11:18:00.573Z,20.73
2023-04-08T11:20:28.246Z,28.17
2023-04-08T11:22:56.056Z,18.17
2023-04-08T11:25:23.642Z,15.98
2023-04-08T11:27:51.621Z,22.42
2023-04-08T11:30:20.621Z,18.60
2023-04-08T11:32:49.107Z,24.45
2023-04-08T11:35:17.904Z,25.67
2023-04-08T11:37:47.619Z,17.77
2023-04-08T11:40:21.570Z,15.57
2023-04-08T11:42:49.924Z,19.52
2023-04-08T11:45:21.222Z,21.13
2023-04-08T11:47:49.328Z,25.60
2023-04-08T11:50:24.785Z,16.77
2023-04-08T11:52:53.060Z,29.80
2023-04-08T11:55:25.930Z,23.92
2023-04-08T11:57:54.384Z,20.98
2023-04-08T12:00:24.198Z,30.47
2023-04-08T12:02:52.798Z,24.15
2023-04-08T12:05:21.003Z,27.95
2023-04-08T12:07:48.811Z,23.27
2023-04-08T12:10:16.307Z,23.70
2023-04-08T12:12:43.819Z,26.87
2023-04-08T12:15:11.907Z,23.60
2023-04-08T12:17:40.834Z,17.27
2023-04-08T12:20:09.001Z,16.83
2023-04-08T12:22:36.777Z,21.52
2023-04-08T12:25:04.590Z,20.87
2023-04-08T12:27:33.333Z,31.38
2023-04-08T12:30:00.798Z,26.90
2023-04-08T12:32:28.259Z,24.90
2023-04-08T12:34:57.136Z,26.10
2023-04-08T12:37:24.849Z,32.10
2023-04-08T12:39:52.315Z,31.33
2023-04-08T12:42:19.780Z,30.33
2023-04-08T12:44:47.298Z,34.38
2023-04-08T12:47:14.813Z,25.55
2023-04-08T12:49:49.354Z,32.83
2023-04-08T12:52:18.828Z,26.90
2023-04-08T12:54:46.271Z,34.67
2023-04-08T12:57:13.732Z,33.05
2023-04-08T12:59:41.175Z,28.92
2023-04-08T13:02:08.716Z,28.73
2023-04-08T13:04:36.270Z,36.88
2023-04-08T13:07:04.334Z,26.55
2023-04-08T13:09:33.252Z,36.75
2023-04-08T13:12:00.721Z,32.58
2023-04-08T13:14:28.604Z,24.73
2023-04-08T13:16:56.163Z,27.88
2023-04-08T13:19:23.816Z,30.25
2023-04-08T13:21:51.279Z,31.15
2023-04-08T13:24:18.745Z,34.25
2023-04-08T13:26:47.731Z,23.43
2023-04-08T13:29:15.314Z,34.38
2023-04-08T13:31:42.792Z,30.35
2023-04-08T13:34:10.228Z,36.85
2023-04-08T13:36:37.685Z,31.58
2023-04-08T13:39:05.149Z,22.83
2023-04-08T13:41:32.858Z,28.73
2023-04-08T13:44:01.727Z,30.08
2023-04-08T13:46:29.270Z,20.27
2023-04-08T13:48:56.796Z,32.30
2023-04-08T13:51:24.339Z,26.70
2023-04-08T13:53:52.000Z,25.35
2023-04-08T13:56:19.449Z,23.35
2023-04-08T13:58:49.958Z,23.20
2023-04-08T14:01:25.749Z,29.00
2023-04-08T14:03:53.318Z,29.03
2023-04-08T14:06:20.819Z,22.65
2023-04-08T14:08:48.327Z,21.63
2023-04-08T14:11:15.842Z,32.78
2023-04-08T14:13:43.277Z,17.80
2023-04-08T14:16:10.698Z,16.00
2023-04-08T14:18:39.464Z,21.73
2023-04-08T14:21:07.317Z,17.45
2023-04-08T14:23:34.732Z,16.95
2023-04-08T14:26:02.313Z,17.48
2023-04-08T14:28:30.327Z,14.43
2023-04-08T14:30:57.849Z,15.07
2023-04-08T14:33:25.288Z,19.70
2023-04-08T14:35:54.892Z,12.02
2023-04-08T14:38:22.977Z,11.57
2023-04-08T14:40:50.637Z,13.37
2023-04-08T14:43:18.052Z,16.10
2023-04-08T14:45:45.864Z,13.63
2023-04-08T14:48:13.336Z,13.77
2023-04-08T14:50:40.831Z,11.52
2023-04-08T14:53:09.629Z,8.60
2023-04-08T14:55:37.080Z,7.47
2023-04-08T14:58:04.512Z,12.73
2023-04-08T15:00:31.967Z,11.32
2023-04-08T15:02:59.766Z,15.20
2023-04-08T15:05:27.430Z,11.80
2023-04-08T15:07:55.361Z,13.57
2023-04-08T15:10:24.108Z,12.93
2023-04-08T15:12:51.531Z,13.70
2023-04-08T15:15:18.973Z,14.90
2023-04-08T15:17:46.458Z,14.57
2023-04-08T15:20:14.372Z,12.82
2023-04-08T15:22:42.073Z,15.07
2023-04-08T15:25:10.716Z,14.07
2023-04-08T15:27:39.799Z,10.93
2023-04-08T15:30:08.899Z,12.88
2023-04-08T15:32:38.030Z,13.93
2023-04-08T15:35:06.621Z,11.60
2023-04-08T15:37:34.139Z,11.18
2023-04-08T15:40:01.711Z,14.40
2023-04-08T15:42:29.284Z,13.73
2023-04-08T15:44:58.194Z,13.35
2023-04-08T15:47:26.022Z,10.43
2023-04-08T15:49:55.709Z,9.60
2023-04-08T15:52:23.398Z,12.35
2023-04-08T15:54:51.168Z,19.20
2023-04-08T15:57:18.625Z,18.05
2023-04-08T15:59:46.048Z,17.67
2023-04-08T16:02:14.912Z,21.60
2023-04-08T16:04:42.608Z,20.83
2023-04-08T16:07:10.358Z,21.87
2023-04-08T16:09:37.926Z,19.67
2023-04-08T16:12:05.457Z,23.55
2023-04-08T16:14:32.964Z,25.00
2023-04-08T16:17:00.450Z,22.95
2023-04-08T16:19:29.953Z,26.27
2023-04-08T16:21:57.379Z,25.48
2023-04-08T16:24:24.800Z,14.20
2023-04-08T16:26:52.548Z,22.85
2023-04-08T16:29:20.196Z,29.10
2023-04-08T16:31:47.651Z,23.88
2023-04-08T16:34:15.455Z,22.25
2023-04-08T16:36:44.256Z,28.80
2023-04-08T16:39:11.693Z,28.05
2023-04-08T16:41:39.718Z,25.17
2023-04-08T16:44:07.385Z,22.10
2023-04-08T16:46:34.849Z,25.33
2023-04-08T16:49:02.263Z,25.92
2023-04-08T16:51:29.764Z,31.58
2023-04-08T16:53:59.378Z,26.17
2023-04-08T16:56:27.611Z,23.50
2023-04-08T16:58:55.471Z,24.05
2023-04-08T17:01:23.073Z,20.55
2023-04-08T17:03:52.196Z,35.90
2023-04-08T17:06:19.878Z,17.88
2023-04-08T17:08:47.424Z,28.80
2023-04-08T17:11:16.331Z,24.83
2023-04-08T17:13:44.869Z,34.03
2023-04-08T17:16:13.468Z,28.50
2023-04-08T17:18:41.128Z,18.00
2023-04-08T17:21:08.829Z,32.08
2023-04-08T17:23:36.301Z,30.52
2023-04-08T17:26:07.246Z,34.22
2023-04-08T17:28:36.465Z,35.13
2023-04-08T17:31:04.120Z,26.45
2023-04-08T17:33:32.034Z,21.92
2023-04-08T17:35:59.506Z,23.67
2023-04-08T17:38:27.281Z,25.00
2023-04-08T17:40:54.791Z,27.80
2023-04-08T17:43:22.224Z,15.02
2023-04-08T17:45:51.556Z,27.50
2023-04-08T17:48:20.057Z,34.30
2023-04-08T17:50:47.586Z,29.23
2023-04-08T17:53:15.314Z,28.52
2023-04-08T17:55:43.096Z,32.47
2023-04-08T17:58:10.737Z,33.47
2023-04-08T18:00:38.348Z,35.38
2023-04-08T18:03:07.465Z,34.67
2023-04-08T18:05:35.036Z,34.47
2023-04-08T18:08:02.980Z,44.22
2023-04-08T18:10:30.676Z,37.30
2023-04-08T18:15:31.536Z,41.60
2023-04-08T18:17:59.135Z,40.35
2023-04-08T18:20:31.083Z,43.33
2023-04-08T18:23:00.216Z,44.40
2023-04-08T18:25:28.321Z,37.20
2023-04-08T18:27:55.895Z,40.20
2023-04-08T18:30:23.621Z,33.05
2023-04-08T18:32:51.471Z,34.92
2023-04-08T18:35:21.574Z,35.22
2023-04-08T18:37:50.588Z,40.40
2023-04-08T18:40:18.536Z,34.88
2023-04-08T18:42:46.054Z,29.02
2023-04-08T18:45:13.732Z,33.03
2023-04-08T18:47:41.438Z,31.73
2023-04-08T18:50:09.678Z,40.25
2023-04-08T18:52:37.425Z,43.67
2023-04-08T18:55:07.086Z,39.03
2023-04-08T18:57:34.679Z,46.10
2023-04-08T19:00:02.368Z,28.73
2023-04-08T19:02:32.871Z,29.30
2023-04-08T19:05:00.482Z,31.35
2023-04-08T19:07:28.679Z,27.63
2023-04-08T19:09:58.390Z,38.00
2023-04-08T19:12:27.757Z,31.92
2023-04-08T19:14:55.388Z,32.45
2023-04-08T19:17:23.189Z,33.10
2023-04-08T19:19:51.654Z,32.75
2023-04-08T19:22:19.301Z,28.40
2023-04-08T19:24:47.078Z,33.05
2023-04-08T19:27:16.574Z,34.83
2023-04-08T19:29:45.956Z,42.03
2023-04-08T19:32:14.305Z,32.97
2023-04-08T19:34:42.264Z,31.30
2023-04-08T19:37:09.945Z,31.67
2023-04-08T19:39:38.790Z,29.27
2023-04-08T19:42:09.307Z,30.33
2023-04-08T19:44:36.900Z,31.00
2023-04-08T19:47:06.746Z,27.98
2023-04-08T19:49:34.461Z,31.83
2023-04-08T19:52:02.260Z,31.58
2023-04-08T19:54:30.105Z,30.45
2023-04-08T19:56:58.432Z,30.23
2023-04-08T19:59:26.313Z,28.88
2023-04-08T20:01:55.232Z,35.80
2023-04-08T20:04:24.571Z,29.23
2023-04-08T20:06:52.329Z,29.92
2023-04-08T20:09:19.945Z,34.40
2023-04-08T20:11:47.550Z,35.28
2023-04-08T20:14:15.372Z,45.83
2023-04-08T20:16:43.713Z,40.95
2023-04-08T20:19:11.325Z,42.15
2023-04-08T20:21:40.239Z,42.08
2023-04-08T20:24:07.837Z,39.00
2023-04-08T20:26:35.710Z,38.30
2023-04-08T20:29:03.369Z,42.22
2023-04-08T20:31:32.234Z,39.17
2023-04-08T20:34:00.295Z,41.88
2023-04-08T20:36:29.581Z,44.75
2023-04-08T20:38:58.606Z,46.42
2023-04-08T20:41:27.145Z,57.22
2023-04-08T20:43:55.389Z,51.08
2023-04-08T20:46:24.435Z,41.83
2023-04-08T20:48:52.478Z,43.10
2023-04-08T20:51:20.479Z,48.53
2023-04-08T20:53:48.356Z,46.05
2023-04-08T20:56:17.551Z,40.95
2023-04-08T20:58:45.434Z,46.17
2023-04-08T21:01:13.637Z,41.15
2023-04-08T21:03:41.641Z,42.72
2023-04-08T21:06:09.624Z,40.40
2023-04-08T21:08:37.202Z,41.47
2023-04-08T21:11:04.728Z,45.50
2023-04-08T21:13:33.707Z,47.83
2023-04-08T21:16:01.391Z,47.00
2023-04-08T21:18:29.094Z,40.60
2023-04-08T21:20:56.714Z,42.78
2023-04-08T21:23:24.297Z,42.58
2023-04-08T21:25:51.820Z,46.88
2023-04-08T21:28:19.403Z,56.20
2023-04-08T21:30:48.279Z,51.35
2023-04-08T21:33:16.500Z,33.58
2023-04-08T21:35:44.025Z,42.08
2023-04-08T21:38:11.619Z,37.25
2023-04-08T21:40:40.903Z,38.13
2023-04-08T21:43:08.496Z,34.92
2023-04-08T21:45:36.142Z,37.60
2023-04-08T21:48:05.501Z,39.05
2023-04-08T21:50:33.063Z,35.25
2023-04-08T21:53:00.766Z,37.13
2023-04-08T21:55:29.276Z,41.65
2023-04-08T21:57:56.910Z,46.20
2023-04-08T22:00:24.516Z,42.60
2023-04-08T22:02:52.521Z,35.10
2023-04-08T22:05:21.728Z,34.10
2023-04-08T22:07:49.402Z,36.55
2023-04-08T22:10:17.033Z,34.42
2023-04-08T22:12:44.652Z,35.70
2023-04-08T22:15:12.664Z,34.83
2023-04-08T22:17:40.181Z,39.40
2023-04-08T22:20:08.847Z,35.55
2023-04-08T22:22:37.744Z,29.42
2023-04-08T22:25:06.183Z,31.35
2023-04-08T22:27:34.079Z,36.92
2023-04-08T22:30:01.577Z,29.98
2023-04-08T22:32:29.178Z,32.10
2023-04-08T22:34:56.851Z,31.88
2023-04-08T22:37:24.392Z,36.78
2023-04-08T22:39:53.285Z,33.53
2023-04-08T22:42:20.852Z,39.25
2023-04-08T22:44:48.460Z,36.42
2023-04-08T22:47:16.047Z,37.25
2023-04-08T22:49:43.626Z,37.03
2023-04-08T22:52:11.235Z,41.33
2023-04-08T22:54:38.772Z,45.13
2023-04-08T22:57:07.681Z,37.78
2023-04-08T22:59:35.245Z,34.42
2023-04-08T23:02:03.088Z,38.50
2023-04-08T23:04:30.854Z,36.35
2023-04-08T23:06:58.472Z,35.08
2023-04-08T23:09:27.075Z,41.70
2023-04-08T23:11:54.625Z,45.40
2023-04-08T23:14:23.436Z,38.65
2023-04-08T23:16:51.855Z,38.10
2023-04-08T23:19:19.356Z,41.47
2023-04-08T23:21:46.946Z,39.33
2023-04-08T23:24:15.004Z,38.83
2023-04-08T23:26:42.582Z,39.72
2023-04-08T23:29:10.519Z,39.42
2023-04-08T23:31:39.620Z,30.35
2023-04-08T23:34:07.172Z,32.10
2023-04-08T23:36:34.672Z,29.60
2023-04-08T23:39:02.290Z,31.98
2023-04-08T23:41:29.820Z,33.17
2023-04-08T23:43:57.427Z,31.60
2023-04-08T23:46:24.993Z,27.20
2023-04-08T23:48:54.124Z,28.40
2023-04-08T23:51:21.800Z,27.98
2023-04-08T23:53:49.367Z,25.70
2023-04-08T23:56:16.974Z,27.40
2023-04-08T23:58:44.462Z,28.70
